createdAt,value
2023-01-25T00:01:32.242Z,21.40
2023-01-25T00:04:34.874Z,19.17
2023-01-25T00:07:37.116Z,21.70
2023-01-25T00:10:39.604Z,20.50
2023-01-25T00:13:42.112Z,20.20
2023-01-25T00:16:45.041Z,20.05
2023-01-25T00:19:47.217Z,19.35
2023-01-25T00:22:49.707Z,19.73
2023-01-25T00:25:59.037Z,20.17
2023-01-25T00:29:02.586Z,20.62
2023-01-25T00:32:32.442Z,19.25
2023-01-25T00:35:35.212Z,18.55
2023-01-25T00:38:38.608Z,17.77
2023-01-25T00:41:41.326Z,19.02
2023-01-25T00:44:43.674Z,18.87
2023-01-25T00:47:46.176Z,19.83
2023-01-25T00:50:48.426Z,20.62
2023-01-25T00:53:51.924Z,18.55
2023-01-25T00:56:56.448Z,19.73
2023-01-25T00:59:59.402Z,18.00
2023-01-25T01:03:01.643Z,19.75
2023-01-25T01:06:10.413Z,18.92
2023-01-25T01:09:16.475Z,20.40
2023-01-25T01:12:19.775Z,19.33
2023-01-25T01:15:22.010Z,19.05
2023-01-25T01:18:24.643Z,18.60
2023-01-25T01:21:28.805Z,18.90
2023-01-25T01:24:32.420Z,19.17
2023-01-25T01:27:34.595Z,18.05
2023-01-25T01:30:37.737Z,19.30
2023-01-25T01:33:40.865Z,19.83
2023-01-25T01:36:44.158Z,18.10
2023-01-25T01:39:46.356Z,19.48
2023-01-25T01:43:17.195Z,18.15
2023-01-25T01:46:34.536Z,19.12
2023-01-25T01:49:37.734Z,20.45
2023-01-25T01:52:40.918Z,18.90
2023-01-25T01:55:43.600Z,16.67
2023-01-25T01:58:49.709Z,18.67
2023-01-25T02:01:52.450Z,17.55
2023-01-25T02:05:01.281Z,20.27
2023-01-25T02:08:05.572Z,17.58
2023-01-25T02:11:09.164Z,18.00
2023-01-25T02:14:11.588Z,17.62
2023-01-25T02:17:14.366Z,16.83
2023-01-25T02:20:39.495Z,19.12
2023-01-25T02:23:51.063Z,18.42
2023-01-25T02:26:53.461Z,17.15
2023-01-25T02:29:57.364Z,15.43
2023-01-25T02:32:59.931Z,17.92
2023-01-25T02:36:08.469Z,18.08
2023-01-25T02:39:20.130Z,17.70
2023-01-25T02:42:24.760Z,16.00
2023-01-25T02:45:30.176Z,17.30
2023-01-25T02:48:32.711Z,18.33
2023-01-25T02:51:38.635Z,14.57
2023-01-25T02:54:41.290Z,16.52
2023-01-25T02:57:44.296Z,16.48
2023-01-25T03:00:48.325Z,18.00
2023-01-25T03:03:50.550Z,16.25
2023-01-25T03:06:53.646Z,17.95
2023-01-25T03:09:55.992Z,18.10
2023-01-25T03:12:59.740Z,17.45
2023-01-25T03:16:06.335Z,15.57
2023-01-25T03:19:09.127Z,17.62
2023-01-25T03:22:11.325Z,17.17
2023-01-25T03:25:14.015Z,16.70
2023-01-25T03:28:18.742Z,14.10
2023-01-25T03:31:24.833Z,13.70
2023-01-25T03:34:27.304Z,13.55
2023-01-25T03:37:30.149Z,11.30
2023-01-25T03:40:32.612Z,12.82
2023-01-25T03:43:35.994Z,13.15
2023-01-25T03:46:42.556Z,14.43
2023-01-25T03:49:46.276Z,14.52
2023-01-25T03:53:29.627Z,14.18
2023-01-25T03:56:33.219Z,15.85
2023-01-25T03:59:36.359Z,13.52
2023-01-25T04:02:39.814Z,14.18
2023-01-25T04:05:43.437Z,14.77
2023-01-25T04:08:46.667Z,15.27
2023-01-25T04:11:51.136Z,16.07
2023-01-25T04:14:55.150Z,13.30
2023-01-25T04:17:57.950Z,14.80
2023-01-25T04:21:00.476Z,14.43
2023-01-25T04:24:03.215Z,15.23
2023-01-25T04:27:06.283Z,15.77
2023-01-25T04:33:12.128Z,15.77
2023-01-25T04:36:15.184Z,17.55
2023-01-25T04:39:18.983Z,15.77
2023-01-25T04:42:22.268Z,13.68
2023-01-25T04:45:25.769Z,16.17
2023-01-25T04:48:29.905Z,18.23
2023-01-25T04:51:32.293Z,17.98
2023-01-25T04:54:34.791Z,17.65
2023-01-25T04:57:37.404Z,17.08
2023-01-25T05:00:39.884Z,16.55
2023-01-25T05:03:42.277Z,17.27
2023-01-25T05:06:46.775Z,18.55
2023-01-25T05:09:49.210Z,15.13
2023-01-25T05:12:54.497Z,15.52
2023-01-25T05:15:57.703Z,15.10
2023-01-25T05:19:00.571Z,15.45
2023-01-25T05:22:07.625Z,15.57
2023-01-25T05:25:31.944Z,16.80
2023-01-25T05:28:35.460Z,14.48
2023-01-25T05:31:39.500Z,15.43
2023-01-25T05:34:42.414Z,14.45
2023-01-25T05:37:44.915Z,14.77
2023-01-25T05:40:49.271Z,11.27
2023-01-25T05:43:52.277Z,14.48
2023-01-25T05:46:54.698Z,13.62
2023-01-25T05:49:57.279Z,12.00
2023-01-25T05:52:59.908Z,11.32
2023-01-25T05:56:05.368Z,12.07
2023-01-25T05:59:07.880Z,12.52
2023-01-25T06:02:11.360Z,13.30
2023-01-25T06:05:14.825Z,10.82
2023-01-25T06:11:23.043Z,10.07
2023-01-25T06:14:27.504Z,9.85
2023-01-25T06:17:31.398Z,10.57
2023-01-25T06:20:35.323Z,10.13
2023-01-25T06:23:41.781Z,10.90
2023-01-25T06:26:46.157Z,9.95
2023-01-25T06:32:53.768Z,12.18
2023-01-25T06:36:00.652Z,9.13
2023-01-25T06:39:04.546Z,10.10
2023-01-25T06:42:07.434Z,9.85
2023-01-25T06:45:10.701Z,10.07
2023-01-25T06:48:13.826Z,11.18
2023-01-25T06:51:16.727Z,10.50
2023-01-25T06:54:19.337Z,11.32
2023-01-25T06:57:21.553Z,9.32
2023-01-25T07:00:24.073Z,10.20
2023-01-25T07:03:26.220Z,8.73
2023-01-25T07:06:34.784Z,11.05
2023-01-25T07:09:37.164Z,9.65
2023-01-25T07:12:39.691Z,10.20
2023-01-25T07:15:41.887Z,8.27
2023-01-25T07:18:44.605Z,8.50
2023-01-25T07:21:47.193Z,8.68
2023-01-25T07:24:52.169Z,9.95
2023-01-25T07:27:55.382Z,8.73
2023-01-25T07:31:06.222Z,8.82
2023-01-25T07:34:13.638Z,9.20
2023-01-25T07:37:16.261Z,8.70
2023-01-25T07:40:18.447Z,10.77
2023-01-25T07:43:20.963Z,9.68
2023-01-25T07:46:23.914Z,9.13
2023-01-25T07:49:26.477Z,9.55
2023-01-25T07:52:28.950Z,9.60
2023-01-25T07:55:31.532Z,10.57
2023-01-25T07:58:34.104Z,10.65
2023-01-25T08:01:37.359Z,9.57
2023-01-25T08:04:40.090Z,10.25
2023-01-25T08:07:42.273Z,11.60
2023-01-25T08:10:44.788Z,10.88
2023-01-25T08:13:49.051Z,10.02
2023-01-25T08:16:51.627Z,11.25
2023-01-25T08:19:53.790Z,9.88
2023-01-25T08:22:56.277Z,10.55
2023-01-25T08:26:03.228Z,11.82
2023-01-25T08:29:07.297Z,10.07
2023-01-25T08:32:09.516Z,10.05
2023-01-25T08:35:12.444Z,9.02
2023-01-25T08:38:14.715Z,7.80
2023-01-25T08:41:22.095Z,9.20
2023-01-25T08:44:26.011Z,8.35
2023-01-25T08:47:28.660Z,7.65
2023-01-25T08:50:31.157Z,9.40
2023-01-25T08:53:33.827Z,8.35
2023-01-25T08:56:42.588Z,9.52
2023-01-25T08:59:45.259Z,8.13
2023-01-25T09:02:47.487Z,8.60
2023-01-25T09:05:49.990Z,8.10
2023-01-25T09:08:52.232Z,10.32
2023-01-25T09:11:55.063Z,8.88
2023-01-25T09:14:57.415Z,9.35
2023-01-25T09:18:00.022Z,10.15
2023-01-25T09:21:09.755Z,8.55
2023-01-25T09:24:12.433Z,9.40
2023-01-25T09:27:14.684Z,8.88
2023-01-25T09:30:19.055Z,9.95
2023-01-25T09:33:28.774Z,9.18
2023-01-25T09:36:31.256Z,10.23
2023-01-25T09:39:33.515Z,11.38
2023-01-25T09:42:47.056Z,11.18
2023-01-25T09:45:49.475Z,10.25
2023-01-25T09:49:16.636Z,9.85
2023-01-25T09:52:38.922Z,9.23
2023-01-25T09:56:12.981Z,10.63
2023-01-25T09:59:18.555Z,7.80
2023-01-25T10:02:30.647Z,10.45
2023-01-25T10:05:51.000Z,9.48
2023-01-25T10:09:01.077Z,9.85
2023-01-25T10:12:20.468Z,11.27
2023-01-25T10:15:29.010Z,9.48
2023-01-25T10:19:01.888Z,10.75
2023-01-25T10:22:24.747Z,10.63
2023-01-25T10:25:45.674Z,7.90
2023-01-25T10:29:04.237Z,9.77
2023-01-25T10:32:26.965Z,11.20
2023-01-25T10:35:38.883Z,8.73
2023-01-25T10:38:46.512Z,10.15
2023-01-25T10:42:05.099Z,11.40
2023-01-25T10:45:17.292Z,7.78
2023-01-25T10:54:31.906Z,8.77
2023-01-25T10:57:35.913Z,10.25
2023-01-25T11:00:40.976Z,8.52
2023-01-25T11:03:47.015Z,7.75
2023-01-25T11:06:51.455Z,7.87
2023-01-25T11:09:54.354Z,9.35
2023-01-25T11:13:15.057Z,8.02
2023-01-25T11:16:26.617Z,8.38
2023-01-25T11:19:30.638Z,7.37
2023-01-25T11:22:33.118Z,8.25
2023-01-25T11:25:35.778Z,7.80
2023-01-25T11:28:38.056Z,8.65
2023-01-25T11:31:45.731Z,8.07
2023-01-25T11:34:49.971Z,7.22
2023-01-25T11:38:11.378Z,7.18
2023-01-25T11:41:35.089Z,8.50
2023-01-25T11:48:43.659Z,8.45
2023-01-25T11:51:46.135Z,7.95
2023-01-25T11:54:56.969Z,6.60
2023-01-25T11:58:02.638Z,8.65
2023-01-25T12:01:27.539Z,8.07
2023-01-25T12:04:42.472Z,6.70
2023-01-25T12:08:12.983Z,8.45
2023-01-25T12:12:09.476Z,7.68
2023-01-25T12:15:36.364Z,8.13
2023-01-25T12:19:00.617Z,7.68
2023-01-25T12:22:02.913Z,6.50
2023-01-25T12:25:20.782Z,8.80
2023-01-25T12:28:29.028Z,7.15
2023-01-25T12:31:42.372Z,8.20
2023-01-25T12:34:50.508Z,9.02
2023-01-25T12:37:58.523Z,8.35
2023-01-25T12:41:28.581Z,7.82
2023-01-25T12:44:51.659Z,7.30
2023-01-25T12:48:01.751Z,7.18
2023-01-25T12:51:04.418Z,8.85
2023-01-25T12:54:16.940Z,8.13
2023-01-25T12:57:57.267Z,9.20
2023-01-25T13:01:08.532Z,7.60
2023-01-25T13:04:44.863Z,7.32
2023-01-25T13:08:00.903Z,8.60
2023-01-25T13:11:10.855Z,8.02
2023-01-25T13:14:16.778Z,7.10
2023-01-25T13:17:22.502Z,10.88
2023-01-25T13:20:40.278Z,9.18
2023-01-25T13:23:47.488Z,7.18
2023-01-25T13:26:59.285Z,8.95
2023-01-25T13:30:23.340Z,8.75
2023-01-25T13:33:36.008Z,8.13
2023-01-25T13:36:42.899Z,9.40
2023-01-25T13:39:48.120Z,8.10
2023-01-25T13:43:23.174Z,8.70
2023-01-25T13:46:26.018Z,8.30
2023-01-25T13:49:36.142Z,8.85
2023-01-25T13:52:38.387Z,7.37
2023-01-25T13:55:43.662Z,6.45
2023-01-25T13:58:48.026Z,9.20
2023-01-25T14:01:51.435Z,8.35
2023-01-25T14:04:54.143Z,7.87
2023-01-25T14:07:57.500Z,8.27
2023-01-25T14:11:00.394Z,8.77
2023-01-25T14:14:16.845Z,8.32
2023-01-25T14:17:22.066Z,8.55
2023-01-25T14:20:24.583Z,8.82
2023-01-25T14:23:29.305Z,10.17
2023-01-25T14:26:33.179Z,8.85
2023-01-25T14:29:35.756Z,8.25
2023-01-25T14:32:37.961Z,9.55
2023-01-25T14:35:53.678Z,8.07
2023-01-25T14:38:56.822Z,9.43
2023-01-25T14:42:01.748Z,9.30
2023-01-25T14:45:04.559Z,9.68
2023-01-25T14:48:33.505Z,8.43
2023-01-25T14:51:48.299Z,9.80
2023-01-25T14:54:53.330Z,8.70
2023-01-25T14:58:00.739Z,10.48
2023-01-25T15:01:03.770Z,9.52
2023-01-25T15:04:11.854Z,9.53
2023-01-25T15:07:46.007Z,8.30
2023-01-25T15:10:53.997Z,10.05
2023-01-25T15:14:05.846Z,10.00
2023-01-25T15:17:41.325Z,9.43
2023-01-25T15:20:44.020Z,11.15
2023-01-25T15:23:47.955Z,9.77
2023-01-25T15:26:53.069Z,11.55
2023-01-25T15:29:55.191Z,11.07
2023-01-25T15:32:58.245Z,10.43
2023-01-25T15:36:00.375Z,10.10
2023-01-25T15:39:03.167Z,10.77
2023-01-25T15:42:06.117Z,11.10
2023-01-25T15:45:12.130Z,10.77
2023-01-25T15:48:35.772Z,10.50
2023-01-25T15:51:38.256Z,12.27
2023-01-25T15:54:44.036Z,11.45
2023-01-25T15:57:51.318Z,10.65
2023-01-25T16:00:53.719Z,10.18
2023-01-25T16:03:59.208Z,11.77
2023-01-25T16:07:02.055Z,11.68
2023-01-25T16:10:04.818Z,12.73
2023-01-25T16:13:08.987Z,11.57
2023-01-25T16:16:20.860Z,12.85
2023-01-25T16:19:24.226Z,14.75
2023-01-25T16:22:26.638Z,13.77
2023-01-25T16:25:28.854Z,10.82
2023-01-25T16:28:31.384Z,12.85
2023-01-25T16:31:33.825Z,15.35
2023-01-25T16:34:36.720Z,13.90
2023-01-25T16:37:39.009Z,11.65
2023-01-25T16:40:41.598Z,11.68
2023-01-25T16:43:45.748Z,12.82
2023-01-25T16:46:50.072Z,10.30
2023-01-25T16:49:52.323Z,10.00
2023-01-25T16:52:56.129Z,10.30
2023-01-25T16:59:05.317Z,12.02
2023-01-25T17:02:11.715Z,10.27
2023-01-25T17:05:14.444Z,9.30
2023-01-25T17:08:17.028Z,10.30
2023-01-25T17:11:20.007Z,12.27
2023-01-25T17:14:22.820Z,11.67
2023-01-25T17:17:27.808Z,11.57
2023-01-25T17:20:30.194Z,12.55
2023-01-25T17:23:34.973Z,11.05
2023-01-25T17:26:37.499Z,12.05
2023-01-25T17:29:40.216Z,13.02
2023-01-25T17:32:42.485Z,11.35
2023-01-25T17:35:45.149Z,11.15
2023-01-25T17:38:48.138Z,11.63
2023-01-25T17:41:51.402Z,11.88
2023-01-25T17:44:53.564Z,12.13
2023-01-25T17:47:56.180Z,11.55
2023-01-25T17:51:02.960Z,12.03
2023-01-25T17:54:06.008Z,13.23
2023-01-25T17:57:08.256Z,11.67
2023-01-25T18:00:12.054Z,12.98
2023-01-25T18:03:14.631Z,12.18
2023-01-25T18:06:20.454Z,11.82
2023-01-25T18:09:23.765Z,13.05
2023-01-25T18:12:27.295Z,10.80
2023-01-25T18:15:29.620Z,12.13
2023-01-25T18:18:32.627Z,10.35
2023-01-25T18:21:35.909Z,11.23
2023-01-25T18:27:40.723Z,10.60
2023-01-25T18:30:49.574Z,12.47
2023-01-25T18:33:52.154Z,13.55
2023-01-25T18:36:58.371Z,11.57
2023-01-25T18:40:00.724Z,11.70
2023-01-25T18:43:03.437Z,13.07
2023-01-25T18:46:05.960Z,13.65
2023-01-25T18:49:09.245Z,12.43
2023-01-25T18:52:12.160Z,13.32
2023-01-25T18:55:15.186Z,12.00
2023-01-25T18:58:17.416Z,13.68
2023-01-25T19:01:22.366Z,13.75
2023-01-25T19:04:24.600Z,10.80
2023-01-25T19:07:27.279Z,11.90
2023-01-25T19:10:29.572Z,15.27
2023-01-25T19:13:37.107Z,13.02
2023-01-25T19:16:39.318Z,11.45
2023-01-25T19:19:44.029Z,13.32
2023-01-25T19:22:47.835Z,10.63
2023-01-25T19:25:56.529Z,12.00
2023-01-25T19:28:58.684Z,11.15
2023-01-25T19:32:01.170Z,12.55
2023-01-25T19:38:08.671Z,11.48
2023-01-25T19:41:13.569Z,11.57
2023-01-25T19:44:16.160Z,10.85
2023-01-25T19:47:18.475Z,12.88
2023-01-25T19:50:21.087Z,10.65
2023-01-25T19:53:23.379Z,11.27
2023-01-25T19:56:28.150Z,12.05
2023-01-25T19:59:30.557Z,14.05
2023-01-25T20:02:33.640Z,10.97
2023-01-25T20:05:36.481Z,11.68
2023-01-25T20:08:40.912Z,11.82
2023-01-25T20:11:43.608Z,11.20
2023-01-25T20:14:45.848Z,11.15
2023-01-25T20:17:48.337Z,11.32
2023-01-25T20:20:55.860Z,12.20
2023-01-25T20:24:02.522Z,10.25
2023-01-25T20:27:04.876Z,9.38
2023-01-25T20:30:08.206Z,9.13
2023-01-25T20:33:10.469Z,11.07
2023-01-25T20:36:13.469Z,12.23
2023-01-25T20:39:20.546Z,10.77
2023-01-25T20:42:23.053Z,9.57
2023-01-25T20:45:25.297Z,8.75
2023-01-25T20:48:29.516Z,10.13
2023-01-25T20:51:32.203Z,9.85
2023-01-25T20:54:34.715Z,10.60
2023-01-25T20:57:37.616Z,10.40
2023-01-25T21:00:40.235Z,9.90
2023-01-25T21:03:42.887Z,9.68
2023-01-25T21:06:46.128Z,8.57
2023-01-25T21:09:48.503Z,9.23
2023-01-25T21:12:51.159Z,8.83
2023-01-25T21:16:23.922Z,9.35
2023-01-25T21:19:26.719Z,10.80
2023-01-25T21:22:29.984Z,11.18
2023-01-25T21:28:35.299Z,10.80
2023-01-25T21:31:39.793Z,12.23
2023-01-25T21:34:42.023Z,11.43
2023-01-25T21:37:46.147Z,10.13
2023-01-25T21:40:48.290Z,10.20
2023-01-25T21:44:11.395Z,12.23
2023-01-25T21:47:29.467Z,10.68
2023-01-25T21:50:51.279Z,10.27
2023-01-25T21:53:53.908Z,11.77
2023-01-25T21:56:57.716Z,10.57
2023-01-25T22:03:03.268Z,11.43
2023-01-25T22:06:06.151Z,9.27
2023-01-25T22:09:09.126Z,10.32
2023-01-25T22:12:12.388Z,9.07
2023-01-25T22:15:14.642Z,10.05
2023-01-25T22:18:17.225Z,10.02
2023-01-25T22:21:22.197Z,11.18
2023-01-25T22:24:24.822Z,12.32
2023-01-25T22:27:33.267Z,8.45
2023-01-25T22:30:35.789Z,8.80
2023-01-25T22:33:38.090Z,9.73
2023-01-25T22:36:40.639Z,9.48
2023-01-25T22:39:42.952Z,11.07
2023-01-25T22:42:45.649Z,10.27
2023-01-25T22:45:52.198Z,9.77
2023-01-25T22:48:55.203Z,10.13
2023-01-25T22:51:57.448Z,9.73
2023-01-25T22:54:59.984Z,9.02
2023-01-25T22:58:02.293Z,11.02
2023-01-25T23:01:09.665Z,11.60
2023-01-25T23:04:12.323Z,8.13
2023-01-25T23:07:18.714Z,10.97
2023-01-25T23:10:21.113Z,11.15
2023-01-25T23:13:23.706Z,10.87
2023-01-25T23:16:25.975Z,10.63
2023-01-25T23:19:28.802Z,10.63
2023-01-25T23:22:30.963Z,10.80
2023-01-25T23:25:33.542Z,10.98
2023-01-25T23:28:35.861Z,9.93
2023-01-25T23:31:38.634Z,10.63
2023-01-25T23:34:41.497Z,11.27
2023-01-25T23:37:45.946Z,10.43
2023-01-25T23:40:48.785Z,12.65
2023-01-25T23:43:51.285Z,11.07
2023-01-25T23:46:53.432Z,11.05
2023-01-25T23:49:56.234Z,10.13
2023-01-25T23:52:58.473Z,11.10
2023-01-25T23:56:05.863Z,11.15
2023-01-25T23:59:08.135Z,10.32
